createdAt,value
2023-03-22T00:00:17.600Z,99255.02
2023-03-22T00:02:46.145Z,99259.88
2023-03-22T00:05:14.414Z,99257.16
2023-03-22T00:08:05.716Z,99259.70
2023-03-22T00:10:37.475Z,99261.44
2023-03-22T00:13:07.092Z,99263.81
2023-03-22T00:15:35.286Z,99265.98
2023-03-22T00:19:09.454Z,99259.52
2023-03-22T00:21:37.691Z,99255.86
2023-03-22T00:24:06.367Z,99261.67
2023-03-22T00:26:35.104Z,99260.98
2023-03-22T00:29:03.103Z,99267.38
2023-03-22T00:31:32.287Z,99266.55
2023-03-22T00:34:00.758Z,99269.45
2023-03-22T00:36:28.934Z,99269.39
2023-03-22T00:38:58.892Z,99274.17
2023-03-22T00:41:27.071Z,99276.48
2023-03-22T00:43:56.860Z,99277.89
2023-03-22T00:46:26.118Z,99280.71
2023-03-22T00:48:54.446Z,99280.14
2023-03-22T00:51:23.288Z,99275.37
2023-03-22T00:53:54.036Z,99271.57
2023-03-22T00:56:25.570Z,99267.32
2023-03-22T00:59:01.761Z,99268.59
2023-03-22T01:01:32.074Z,99268.06
2023-03-22T01:04:00.883Z,99267.58
2023-03-22T01:06:29.506Z,99268.92
2023-03-22T01:08:57.493Z,99268.73
2023-03-22T01:11:26.476Z,99263.88
2023-03-22T01:13:55.806Z,99264.58
2023-03-22T01:16:23.876Z,99265.31
2023-03-22T01:18:52.292Z,99266.10
2023-03-22T01:21:20.727Z,99265.38
2023-03-22T01:23:50.953Z,99263.67
2023-03-22T01:26:19.329Z,99268.80
2023-03-22T01:28:47.361Z,99272.61
2023-03-22T01:31:15.386Z,99273.66
2023-03-22T01:33:43.451Z,99280.07
2023-03-22T01:36:12.295Z,99277.10
2023-03-22T01:38:40.514Z,99284.52
2023-03-22T01:41:08.407Z,99287.66
2023-03-22T01:43:39.817Z,99289.78
2023-03-22T01:46:08.461Z,99286.92
2023-03-22T01:48:42.316Z,99291.63
2023-03-22T01:51:13.689Z,99290.29
2023-03-22T01:54:04.387Z,99292.21
2023-03-22T01:56:35.957Z,99297.05
2023-03-22T01:59:04.386Z,99299.48
2023-03-22T02:01:47.323Z,99296.88
2023-03-22T02:04:23.462Z,99296.66
2023-03-22T02:06:54.149Z,99298.04
2023-03-22T02:09:22.216Z,99302.45
2023-03-22T02:11:59.631Z,99303.79
2023-03-22T02:14:43.556Z,99300.89
2023-03-22T02:18:06.485Z,99299.70
2023-03-22T02:21:17.513Z,99302.33
2023-03-22T02:24:15.002Z,99305.95
2023-03-22T02:26:51.040Z,99307.56
2023-03-22T02:29:36.759Z,99304.34
2023-03-22T02:32:32.199Z,99307.51
2023-03-22T02:35:04.074Z,99313.08
2023-03-22T02:37:41.834Z,99309.02
2023-03-22T02:40:27.930Z,99310.73
2023-03-22T02:42:59.163Z,99314.55
2023-03-22T02:45:32.158Z,99311.86
2023-03-22T02:50:29.357Z,99320.71
2023-03-22T02:53:05.340Z,99324.68
2023-03-22T02:55:40.586Z,99324.63
2023-03-22T02:58:24.077Z,99328.36
2023-03-22T03:00:55.991Z,99328.20
2023-03-22T03:03:25.633Z,99330.21
2023-03-22T03:05:57.004Z,99330.38
2023-03-22T03:08:25.200Z,99337.33
2023-03-22T03:10:57.610Z,99342.27
2023-03-22T03:13:26.267Z,99341.60
2023-03-22T03:15:58.709Z,99340.02
2023-03-22T03:18:46.988Z,99340.04
2023-03-22T03:21:23.842Z,99342.83
2023-03-22T03:23:57.912Z,99345.80
2023-03-22T03:26:31.932Z,99345.05
2023-03-22T03:29:22.091Z,99346.41
2023-03-22T03:31:56.764Z,99349.73
2023-03-22T03:34:34.391Z,99352.63
2023-03-22T03:37:08.614Z,99359.71
2023-03-22T03:39:39.783Z,99357.25
2023-03-22T03:42:07.998Z,99362.08
2023-03-22T03:44:36.761Z,99361.08
2023-03-22T03:47:07.193Z,99359.88
2023-03-22T03:49:35.196Z,99362.01
2023-03-22T03:52:04.681Z,99363.14
2023-03-22T03:54:32.683Z,99361.21
2023-03-22T03:57:05.653Z,99367.36
2023-03-22T04:02:05.920Z,99361.20
2023-03-22T04:04:38.465Z,99363.44
2023-03-22T04:07:50.031Z,99364.93
2023-03-22T04:10:18.214Z,99364.92
2023-03-22T04:12:46.870Z,99364.49
2023-03-22T04:15:17.723Z,99367.65
2023-03-22T04:17:48.700Z,99370.90
2023-03-22T04:20:17.816Z,99373.08
2023-03-22T04:22:48.389Z,99369.58
2023-03-22T04:25:19.197Z,99368.57
2023-03-22T04:28:00.867Z,99363.33
2023-03-22T04:30:31.001Z,99366.38
2023-03-22T04:33:07.273Z,99369.73
2023-03-22T04:35:56.781Z,99367.91
2023-03-22T04:38:28.146Z,99371.39
2023-03-22T04:40:57.908Z,99372.56
2023-03-22T04:43:47.133Z,99372.48
2023-03-22T04:46:17.136Z,99379.18
2023-03-22T04:48:49.612Z,99385.39
2023-03-22T04:51:18.062Z,99384.39
2023-03-22T04:53:58.715Z,99390.19
2023-03-22T04:56:26.858Z,99393.79
2023-03-22T04:58:55.767Z,99399.36
2023-03-22T05:01:23.809Z,99401.53
2023-03-22T05:03:58.950Z,99400.01
2023-03-22T05:06:28.003Z,99403.14
2023-03-22T05:09:08.180Z,99400.97
2023-03-22T05:11:36.970Z,99400.04
2023-03-22T05:14:14.554Z,99407.92
2023-03-22T05:16:47.097Z,99412.88
2023-03-22T05:19:16.973Z,99413.56
2023-03-22T05:21:49.731Z,99409.75
2023-03-22T05:24:19.140Z,99409.63
2023-03-22T05:26:53.949Z,99409.64
2023-03-22T05:29:25.952Z,99410.91
2023-03-22T05:32:09.976Z,99413.29
2023-03-22T05:34:38.966Z,99418.02
2023-03-22T05:37:21.225Z,99415.98
2023-03-22T05:39:55.290Z,99418.02
2023-03-22T05:42:28.200Z,99422.68
2023-03-22T05:44:56.443Z,99424.14
2023-03-22T05:47:25.257Z,99428.84
2023-03-22T05:50:12.525Z,99428.55
2023-03-22T05:52:42.915Z,99434.14
2023-03-22T05:55:40.860Z,99432.14
2023-03-22T05:58:19.213Z,99433.55
2023-03-22T06:00:51.469Z,99439.69
2023-03-22T06:03:23.576Z,99438.27
2023-03-22T06:05:56.864Z,99443.27
2023-03-22T06:08:38.226Z,99448.81
2023-03-22T06:11:10.924Z,99447.84
2023-03-22T06:13:38.897Z,99454.15
2023-03-22T06:16:08.392Z,99460.48
2023-03-22T06:18:38.923Z,99465.56
2023-03-22T06:21:11.627Z,99471.95
2023-03-22T06:23:41.495Z,99477.67
2023-03-22T06:26:13.805Z,99474.90
2023-03-22T06:28:44.016Z,99478.81
2023-03-22T06:31:12.773Z,99479.83
2023-03-22T06:33:46.846Z,99481.81
2023-03-22T06:36:22.799Z,99479.21
2023-03-22T06:39:09.356Z,99478.98
2023-03-22T06:41:39.206Z,99480.85
2023-03-22T06:44:07.139Z,99482.28
2023-03-22T06:46:53.807Z,99486.27
2023-03-22T06:49:44.747Z,99485.11
2023-03-22T06:52:19.131Z,99489.39
2023-03-22T06:54:47.778Z,99490.11
2023-03-22T06:57:16.008Z,99492.05
2023-03-22T06:59:44.579Z,99495.02
2023-03-22T07:02:14.760Z,99494.48
2023-03-22T07:04:52.104Z,99496.75
2023-03-22T07:07:23.306Z,99495.70
2023-03-22T07:09:53.933Z,99496.77
2023-03-22T07:12:22.887Z,99494.25
2023-03-22T07:14:51.231Z,99490.27
2023-03-22T07:17:31.896Z,99490.15
2023-03-22T07:20:01.722Z,99489.75
2023-03-22T07:22:30.980Z,99487.72
2023-03-22T07:25:02.208Z,99488.57
2023-03-22T07:27:51.840Z,99493.55
2023-03-22T07:30:22.984Z,99496.09
2023-03-22T07:32:51.340Z,99493.21
2023-03-22T07:35:19.485Z,99492.73
2023-03-22T07:37:48.919Z,99490.52
2023-03-22T07:40:27.302Z,99490.45
2023-03-22T07:42:56.171Z,99492.41
2023-03-22T07:45:52.706Z,99491.65
2023-03-22T07:48:55.699Z,99496.44
2023-03-22T07:51:41.742Z,99497.14
2023-03-22T07:54:09.897Z,99498.45
2023-03-22T07:56:38.488Z,99497.93
2023-03-22T07:59:07.326Z,99493.72
2023-03-22T08:01:35.407Z,99491.93
2023-03-22T08:04:10.691Z,99494.35
2023-03-22T08:07:00.735Z,99490.44
2023-03-22T08:09:28.936Z,99491.71
2023-03-22T08:12:02.798Z,99493.30
2023-03-22T08:14:36.562Z,99491.58
2023-03-22T08:17:07.802Z,99494.59
2023-03-22T08:19:37.022Z,99492.65
2023-03-22T08:22:06.942Z,99494.41
2023-03-22T08:24:54.504Z,99495.45
2023-03-22T08:27:29.175Z,99499.76
2023-03-22T08:29:58.973Z,99498.23
2023-03-22T08:32:28.634Z,99501.26
2023-03-22T08:34:59.318Z,99495.76
2023-03-22T08:37:27.976Z,99496.39
2023-03-22T08:39:56.612Z,99495.45
2023-03-22T08:42:39.166Z,99499.09
2023-03-22T08:45:10.388Z,99502.23
2023-03-22T08:47:44.423Z,99503.98
2023-03-22T08:50:13.543Z,99497.06
2023-03-22T08:52:54.212Z,99493.54
2023-03-22T08:55:31.657Z,99489.79
2023-03-22T08:58:20.073Z,99491.77
2023-03-22T09:01:18.878Z,99495.19
2023-03-22T09:04:05.834Z,99492.48
2023-03-22T09:06:34.398Z,99490.89
2023-03-22T09:09:03.821Z,99490.27
2023-03-22T09:11:35.582Z,99494.28
2023-03-22T09:14:04.123Z,99495.25
2023-03-22T09:16:38.825Z,99494.77
2023-03-22T09:19:07.782Z,99496.31
2023-03-22T09:21:37.896Z,99498.23
2023-03-22T09:24:15.053Z,99495.81
2023-03-22T09:26:52.032Z,99490.77
2023-03-22T09:29:21.158Z,99491.91
2023-03-22T09:31:49.981Z,99496.77
2023-03-22T09:34:22.220Z,99494.74
2023-03-22T09:36:52.888Z,99496.60
2023-03-22T09:39:25.917Z,99497.45
2023-03-22T09:42:00.715Z,99497.90
2023-03-22T09:44:41.604Z,99498.15
2023-03-22T09:47:19.312Z,99500.98
2023-03-22T09:49:53.839Z,99504.34
2023-03-22T09:52:22.673Z,99503.94
2023-03-22T09:54:53.075Z,99502.98
2023-03-22T09:57:34.887Z,99499.80
2023-03-22T10:00:30.829Z,99502.55
2023-03-22T10:03:05.195Z,99501.23
2023-03-22T10:06:24.740Z,99498.98
2023-03-22T10:09:15.975Z,99495.80
2023-03-22T10:11:46.965Z,99496.95
2023-03-22T10:14:25.944Z,99494.88
2023-03-22T10:16:56.483Z,99493.30
2023-03-22T10:19:33.303Z,99494.58
2023-03-22T10:22:04.093Z,99488.60
2023-03-22T10:24:34.008Z,99486.91
2023-03-22T10:27:02.141Z,99486.11
2023-03-22T10:29:38.196Z,99481.13
2023-03-22T10:32:14.187Z,99476.92
2023-03-22T10:34:44.030Z,99476.80
2023-03-22T10:37:24.969Z,99481.05
2023-03-22T10:39:54.717Z,99476.34
2023-03-22T10:42:25.182Z,99478.70
2023-03-22T10:44:56.162Z,99481.50
2023-03-22T10:47:36.468Z,99478.73
2023-03-22T10:50:06.654Z,99475.02
2023-03-22T10:52:45.017Z,99476.83
2023-03-22T10:55:13.763Z,99476.33
2023-03-22T10:57:43.214Z,99474.13
2023-03-22T11:00:15.060Z,99475.31
2023-03-22T11:02:47.348Z,99470.15
2023-03-22T11:05:24.361Z,99469.36
2023-03-22T11:07:53.401Z,99464.80
2023-03-22T11:10:24.064Z,99463.59
2023-03-22T11:13:11.823Z,99461.90
2023-03-22T11:15:42.396Z,99461.69
2023-03-22T11:18:15.816Z,99461.67
2023-03-22T11:20:54.345Z,99463.73
2023-03-22T11:23:24.124Z,99461.84
2023-03-22T11:25:56.331Z,99460.30
2023-03-22T11:28:47.888Z,99459.70
2023-03-22T11:31:17.632Z,99456.42
2023-03-22T11:34:00.992Z,99454.17
2023-03-22T11:36:30.441Z,99453.02
2023-03-22T11:38:59.894Z,99449.55
2023-03-22T11:41:30.001Z,99445.70
2023-03-22T11:44:01.290Z,99444.92
2023-03-22T11:46:30.504Z,99448.58
2023-03-22T11:49:01.463Z,99445.60
2023-03-22T11:51:40.064Z,99445.02
2023-03-22T11:54:10.102Z,99439.93
2023-03-22T11:56:43.756Z,99440.09
2023-03-22T11:59:24.995Z,99435.54
2023-03-22T12:02:06.652Z,99431.02
2023-03-22T12:04:36.403Z,99424.75
2023-03-22T12:07:09.735Z,99427.74
2023-03-22T12:09:48.309Z,99430.56
2023-03-22T12:12:19.811Z,99433.06
2023-03-22T12:15:16.125Z,99430.77
2023-03-22T12:18:23.174Z,99429.80
2023-03-22T12:20:54.725Z,99424.53
2023-03-22T12:23:28.642Z,99436.00
2023-03-22T12:25:57.972Z,99430.56
2023-03-22T12:28:40.579Z,99432.06
2023-03-22T12:31:21.383Z,99423.32
2023-03-22T12:33:54.489Z,99423.84
2023-03-22T12:36:35.445Z,99418.65
2023-03-22T12:39:03.766Z,99416.50
2023-03-22T12:41:36.505Z,99417.61
2023-03-22T12:44:06.096Z,99417.98
2023-03-22T12:46:38.709Z,99418.89
2023-03-22T12:49:16.330Z,99417.81
2023-03-22T12:51:49.241Z,99412.88
2023-03-22T12:54:18.940Z,99406.07
2023-03-22T12:56:46.869Z,99407.95
2023-03-22T12:59:20.292Z,99409.79
2023-03-22T13:01:53.790Z,99410.09
2023-03-22T13:04:43.422Z,99405.24
2023-03-22T13:07:20.425Z,99404.27
2023-03-22T13:09:50.092Z,99404.66
2023-03-22T13:12:24.645Z,99406.84
2023-03-22T13:14:58.087Z,99400.36
2023-03-22T13:17:27.570Z,99399.67
2023-03-22T13:20:06.934Z,99398.23
2023-03-22T13:22:38.158Z,99400.35
2023-03-22T13:25:13.271Z,99398.64
2023-03-22T13:27:52.752Z,99401.06
2023-03-22T13:30:25.312Z,99403.78
2023-03-22T13:33:03.848Z,99403.67
2023-03-22T13:36:13.948Z,99402.29
2023-03-22T13:38:42.791Z,99406.58
2023-03-22T13:41:22.289Z,99404.14
2023-03-22T13:43:51.724Z,99402.62
2023-03-22T13:46:22.757Z,99402.63
2023-03-22T13:49:00.395Z,99396.02
2023-03-22T13:51:33.587Z,99400.73
2023-03-22T13:54:06.350Z,99398.79
2023-03-22T13:56:52.632Z,99400.77
2023-03-22T13:59:29.669Z,99401.08
2023-03-22T14:02:04.555Z,99397.05
2023-03-22T14:04:56.910Z,99397.13
2023-03-22T14:07:44.431Z,99394.29
2023-03-22T14:10:26.199Z,99394.29
2023-03-22T14:12:56.047Z,99392.77
2023-03-22T14:15:28.717Z,99389.55
2023-03-22T14:18:03.099Z,99385.65
2023-03-22T14:20:34.733Z,99386.03
